Time;durP1;ratioP1;P1;durP2;ratioP2;P2;SDS_P1;SDS_P2;PMS_P1;PMS_P2;Temp;Humidity;BMP_temperature;BMP_pressure;BME280_temperature;BME280_humidity;BME280_pressure;Samples;Min_cycle;Max_cycle;Signal;HPM_P1;HPM_P2
2022/06/12 00:01:21;;;;;;;13.50;3.80;;;;;;;;;;5060649;28;20069;-64
2022/06/12 00:03:48;;;;;;;13.23;4.20;;;;;;;;;;5086089;28;20043;-64
2022/06/12 00:06:15;;;;;;;17.17;3.78;;;;;;;;;;5087184;28;20047;-64
2022/06/12 00:08:41;;;;;;;13.55;4.05;;;;;;;;;;5087393;28;20040;-63
2022/06/12 00:11:09;;;;;;;17.40;4.25;;;;;;;;;;5092821;28;20400;-64
2022/06/12 00:13:37;;;;;;;20.52;5.30;;;;;;;;;;5088394;28;20039;-64
2022/06/12 00:16:04;;;;;;;19.88;4.47;;;;;;;;;;5081263;28;20044;-64
2022/06/12 00:18:31;;;;;;;15.98;4.25;;;;;;;;;;5064969;28;20143;-63
2022/06/12 00:21:12;;;;;;;22.60;4.82;;;;;;;;;;5085938;28;20044;-64
2022/06/12 00:23:44;;;;;;;14.73;4.18;;;;;;;;;;5079105;28;20491;-64
2022/06/12 00:26:11;;;;;;;20.45;5.03;;;;;;;;;;5084966;28;20510;-64
2022/06/12 00:28:38;;;;;;;19.50;4.20;;;;;;;;;;5063711;28;20047;-64
2022/06/12 00:31:04;;;;;;;19.30;4.57;;;;;;;;;;5069383;28;20047;-64
2022/06/12 00:33:31;;;;;;;17.55;4.00;;;;;;;;;;5083517;28;20094;-67
2022/06/12 00:35:58;;;;;;;20.15;4.72;;;;;;;;;;5083542;28;20403;-64
2022/06/12 00:38:24;;;;;;;16.20;4.43;;;;;;;;;;5083284;28;20649;-64
2022/06/12 00:40:50;;;;;;;17.67;4.35;;;;;;;;;;5090076;28;20088;-63
2022/06/12 00:43:16;;;;;;;20.50;4.15;;;;;;;;;;5090773;28;20048;-64
2022/06/12 00:45:46;;;;;;;21.05;3.83;;;;;;;;;;5059379;28;20067;-64
2022/06/12 00:48:13;;;;;;;13.70;4.32;;;;;;;;;;5075455;28;20052;-64
2022/06/12 00:50:42;;;;;;;19.23;4.18;;;;;;;;;;5077377;28;20135;-64
2022/06/12 00:53:11;;;;;;;18.30;4.35;;;;;;;;;;5059573;28;20056;-64
2022/06/12 00:55:54;;;;;;;18.27;4.65;;;;;;;;;;5075236;28;20055;-64
2022/06/12 00:58:22;;;;;;;21.13;4.47;;;;;;;;;;5075138;28;20052;-64
2022/06/12 01:00:49;;;;;;;17.02;4.38;;;;;;;;;;5060349;28;20044;-64
2022/06/12 01:03:15;;;;;;;16.30;4.93;;;;;;;;;;5073330;28;20052;-64
2022/06/12 01:08:28;;;;;;;20.95;5.10;;;;;;;;;;5077609;28;20036;-64
2022/06/12 01:10:57;;;;;;;21.90;5.95;;;;;;;;;;5075088;28;20060;-64
2022/06/12 01:13:27;;;;;;;19.58;6.78;;;;;;;;;;5076645;28;20127;-64
2022/06/12 01:15:55;;;;;;;23.73;8.73;;;;;;;;;;5075033;28;20036;-64
2022/06/12 01:18:23;;;;;;;17.90;8.82;;;;;;;;;;5087725;28;20055;-64
2022/06/12 01:20:58;;;;;;;22.85;9.05;;;;;;;;;;5073147;28;20052;-64
2022/06/12 01:23:27;;;;;;;25.73;9.50;;;;;;;;;;5080143;28;20179;-64
2022/06/12 01:26:03;;;;;;;23.08;7.72;;;;;;;;;;5079542;28;20438;-64
2022/06/12 01:28:34;;;;;;;22.27;7.53;;;;;;;;;;5078388;28;20452;-64
2022/06/12 01:31:06;;;;;;;19.70;7.13;;;;;;;;;;5079085;28;20036;-64
2022/06/12 01:33:51;;;;;;;19.00;5.63;;;;;;;;;;5058459;28;20411;-64
2022/06/12 01:36:21;;;;;;;20.30;5.78;;;;;;;;;;5083656;28;20123;-64
2022/06/12 01:38:53;;;;;;;20.52;6.10;;;;;;;;;;5080618;28;20059;-64
2022/06/12 01:41:31;;;;;;;19.67;5.00;;;;;;;;;;5077952;28;20059;-64
2022/06/12 01:44:07;;;;;;;19.42;4.95;;;;;;;;;;5078718;28;20487;-64
2022/06/12 01:46:41;;;;;;;19.27;4.97;;;;;;;;;;5055402;28;20054;-64
2022/06/12 01:49:18;;;;;;;21.65;5.07;;;;;;;;;;5082411;28;20048;-64
2022/06/12 01:52:00;;;;;;;21.48;5.70;;;;;;;;;;5079613;28;20444;-64
2022/06/12 01:54:31;;;;;;;16.10;5.10;;;;;;;;;;5077422;28;20552;-63
2022/06/12 01:57:03;;;;;;;19.70;5.88;;;;;;;;;;5080458;28;20040;-64
2022/06/12 01:59:40;;;;;;;17.40;5.22;;;;;;;;;;5077023;28;20041;-64
2022/06/12 02:02:12;;;;;;;17.85;4.85;;;;;;;;;;5061271;28;20134;-64
2022/06/12 02:04:44;;;;;;;22.23;5.75;;;;;;;;;;5081800;28;20174;-64
2022/06/12 02:07:17;;;;;;;16.27;4.88;;;;;;;;;;5080759;28;20075;-63
2022/06/12 02:09:48;;;;;;;18.50;5.13;;;;;;;;;;5080547;28;20064;-64
2022/06/12 02:15:14;;;;;;;22.20;5.20;;;;;;;;;;5083631;28;20377;-63
2022/06/12 02:17:44;;;;;;;17.98;5.07;;;;;;;;;;5062242;28;20472;-64
2022/06/12 02:20:12;;;;;;;19.40;5.00;;;;;;;;;;5061682;28;20121;-64
2022/06/12 02:22:39;;;;;;;26.75;5.57;;;;;;;;;;5081612;28;20046;-64
2022/06/12 02:25:09;;;;;;;20.75;5.25;;;;;;;;;;5061714;28;20083;-64
2022/06/12 02:27:38;;;;;;;25.30;5.53;;;;;;;;;;5069177;28;20048;-64
2022/06/12 02:30:08;;;;;;;21.92;4.97;;;;;;;;;;5067274;28;20050;-64
2022/06/12 02:32:37;;;;;;;20.05;5.57;;;;;;;;;;5080044;28;20071;-64
2022/06/12 02:35:08;;;;;;;22.40;6.00;;;;;;;;;;5081685;28;20041;-64
2022/06/12 02:37:38;;;;;;;22.10;5.60;;;;;;;;;;5083736;28;20048;-64
2022/06/12 02:40:07;;;;;;;20.48;5.90;;;;;;;;;;5078210;28;20028;-64
2022/06/12 02:42:37;;;;;;;24.10;5.68;;;;;;;;;;5065508;28;20048;-64
2022/06/12 02:45:04;;;;;;;23.17;5.65;;;;;;;;;;5087419;28;20351;-64
2022/06/12 02:47:32;;;;;;;24.15;5.70;;;;;;;;;;5102613;28;20474;-64
2022/06/12 02:49:59;;;;;;;23.38;5.53;;;;;;;;;;5098253;28;20104;-64
2022/06/12 02:52:44;;;;;;;20.30;5.25;;;;;;;;;;5100004;28;20035;-64
2022/06/12 02:55:19;;;;;;;21.50;5.65;;;;;;;;;;5095011;28;20056;-64
2022/06/12 02:57:49;;;;;;;19.38;5.78;;;;;;;;;;5082032;28;20071;-64
2022/06/12 03:00:27;;;;;;;19.38;5.15;;;;;;;;;;5099635;28;20499;-63
2022/06/12 03:02:57;;;;;;;22.30;5.15;;;;;;;;;;5095506;28;20066;-64
2022/06/12 03:05:26;;;;;;;22.52;5.03;;;;;;;;;;5097014;28;20044;-64
2022/06/12 03:07:56;;;;;;;21.05;6.43;;;;;;;;;;5096713;28;20388;-63
2022/06/12 03:10:24;;;;;;;22.95;6.78;;;;;;;;;;5077756;28;20105;-64
2022/06/12 03:12:50;;;;;;;22.77;6.47;;;;;;;;;;5082270;28;20051;-64
2022/06/12 03:15:31;;;;;;;23.35;5.60;;;;;;;;;;5099743;28;20047;-64
2022/06/12 03:17:58;;;;;;;20.85;5.05;;;;;;;;;;5099778;28;20047;-63
2022/06/12 03:20:26;;;;;;;20.27;4.93;;;;;;;;;;5100140;28;20447;-64
2022/06/12 03:23:00;;;;;;;25.20;5.95;;;;;;;;;;5080256;28;20456;-64
2022/06/12 03:25:37;;;;;;;19.25;5.57;;;;;;;;;;5098760;28;20039;-64
2022/06/12 03:28:05;;;;;;;18.63;4.75;;;;;;;;;;5102322;28;20043;-64
2022/06/12 03:30:35;;;;;;;20.00;4.90;;;;;;;;;;5099133;28;20313;-64
2022/06/12 03:33:07;;;;;;;24.17;5.55;;;;;;;;;;5079891;28;20088;-64
2022/06/12 03:35:38;;;;;;;28.50;5.07;;;;;;;;;;5096153;28;20126;-64
2022/06/12 03:38:10;;;;;;;25.40;5.20;;;;;;;;;;5100054;28;20079;-63
2022/06/12 03:40:51;;;;;;;21.80;5.25;;;;;;;;;;5099241;28;20526;-64
2022/06/12 03:43:20;;;;;;;23.10;5.47;;;;;;;;;;5083794;28;20055;-64
2022/06/12 03:45:53;;;;;;;25.48;5.22;;;;;;;;;;5077872;28;20500;-63
2022/06/12 03:48:25;;;;;;;25.73;5.60;;;;;;;;;;5080473;28;20131;-64
2022/06/12 03:51:05;;;;;;;23.17;5.50;;;;;;;;;;5096295;28;20438;-64
2022/06/12 03:53:34;;;;;;;23.85;5.13;;;;;;;;;;5095117;28;20075;-63
2022/06/12 03:59:00;;;;;;;23.23;6.22;;;;;;;;;;5080755;28;20487;-64
2022/06/12 04:01:26;;;;;;;21.13;5.28;;;;;;;;;;5094989;28;20479;-64
2022/06/12 04:03:54;;;;;;;24.02;5.20;;;;;;;;;;5098029;28;20036;-64
2022/06/12 04:06:22;;;;;;;22.45;5.47;;;;;;;;;;5101746;28;21645;-64
2022/06/12 04:08:50;;;;;;;15.57;5.57;;;;;;;;;;5093068;28;20059;-64
2022/06/12 04:11:18;;;;;;;19.67;5.40;;;;;;;;;;5100042;28;20050;-63
2022/06/12 04:13:45;;;;;;;18.17;4.35;;;;;;;;;;5093740;28;20065;-64
2022/06/12 04:16:15;;;;;;;25.83;6.25;;;;;;;;;;5092958;28;20051;-64
2022/06/12 04:18:41;;;;;;;18.50;5.15;;;;;;;;;;5098020;28;20189;-64
2022/06/12 04:21:09;;;;;;;24.27;5.47;;;;;;;;;;5099990;28;20092;-63
2022/06/12 04:23:49;;;;;;;34.25;5.85;;;;;;;;;;5082972;28;20519;-64
2022/06/12 04:26:21;;;;;;;27.73;5.72;;;;;;;;;;5078178;28;20571;-64
2022/06/12 04:28:55;;;;;;;29.80;5.63;;;;;;;;;;5098166;28;20512;-63
2022/06/12 04:31:21;;;;;;;25.83;6.32;;;;;;;;;;5097427;28;20040;-64
2022/06/12 04:33:47;;;;;;;31.08;6.03;;;;;;;;;;5093246;28;20031;-64
2022/06/12 04:36:13;;;;;;;31.35;7.22;;;;;;;;;;5094600;28;20395;-64
2022/06/12 04:38:40;;;;;;;28.13;7.72;;;;;;;;;;5097306;28;20075;-64
2022/06/12 04:41:06;;;;;;;37.35;7.13;;;;;;;;;;5096115;28;20036;-64
2022/06/12 04:43:33;;;;;;;37.22;7.30;;;;;;;;;;5087315;28;20124;-64
2022/06/12 04:45:59;;;;;;;38.72;8.25;;;;;;;;;;5100357;28;20051;-64
2022/06/12 04:48:30;;;;;;;36.42;9.68;;;;;;;;;;5100649;28;20052;-64
2022/06/12 04:50:56;;;;;;;30.75;7.68;;;;;;;;;;5100012;28;20457;-64
2022/06/12 04:53:22;;;;;;;34.35;8.63;;;;;;;;;;5104090;28;20047;-64
2022/06/12 04:55:49;;;;;;;37.80;8.00;;;;;;;;;;5102426;28;20040;-64
2022/06/12 04:58:15;;;;;;;28.95;7.43;;;;;;;;;;5083045;28;20495;-64
2022/06/12 05:00:41;;;;;;;31.08;8.07;;;;;;;;;;5103910;28;20116;-64
2022/06/12 05:03:07;;;;;;;36.45;9.30;;;;;;;;;;5102897;28;20098;-64
2022/06/12 05:05:34;;;;;;;34.63;7.60;;;;;;;;;;5101067;28;20328;-64
2022/06/12 05:08:00;;;;;;;34.60;8.18;;;;;;;;;;5101972;28;20062;-64
2022/06/12 05:10:26;;;;;;;45.78;9.63;;;;;;;;;;5101283;28;20089;-64
2022/06/12 05:12:53;;;;;;;37.78;8.75;;;;;;;;;;5101025;28;20042;-64
2022/06/12 05:15:19;;;;;;;38.05;8.32;;;;;;;;;;5102437;28;20316;-64
2022/06/12 05:17:46;;;;;;;49.20;10.73;;;;;;;;;;5081389;28;20403;-64
2022/06/12 05:20:20;;;;;;;34.95;10.25;;;;;;;;;;5088373;28;20432;-64
2022/06/12 05:22:47;;;;;;;39.63;10.50;;;;;;;;;;5102672;28;20475;-64
2022/06/12 05:25:13;;;;;;;39.53;9.63;;;;;;;;;;5101209;28;20598;-64
2022/06/12 05:27:40;;;;;;;46.45;9.70;;;;;;;;;;5095557;28;20056;-64
2022/06/12 05:30:06;;;;;;;49.38;13.40;;;;;;;;;;5096276;28;20068;-64
2022/06/12 05:32:33;;;;;;;44.00;10.23;;;;;;;;;;5080972;28;20040;-64
2022/06/12 05:35:00;;;;;;;44.22;10.23;;;;;;;;;;5100580;28;20046;-64
2022/06/12 05:37:26;;;;;;;45.50;11.10;;;;;;;;;;5100660;28;20530;-64
2022/06/12 05:39:52;;;;;;;44.70;10.68;;;;;;;;;;5080164;28;20101;-64
2022/06/12 05:42:20;;;;;;;47.15;11.88;;;;;;;;;;5101751;28;20475;-64
2022/06/12 05:44:46;;;;;;;44.97;11.85;;;;;;;;;;5080841;28;20056;-64
2022/06/12 05:47:13;;;;;;;42.35;11.48;;;;;;;;;;5082696;28;20093;-64
2022/06/12 05:49:39;;;;;;;44.67;11.25;;;;;;;;;;5099763;28;20780;-64
2022/06/12 05:52:05;;;;;;;48.97;11.43;;;;;;;;;;5100899;28;20036;-64
2022/06/12 05:54:33;;;;;;;42.70;10.55;;;;;;;;;;5078219;28;20447;-64
2022/06/12 05:56:59;;;;;;;42.72;10.80;;;;;;;;;;5093926;28;20058;-64
2022/06/12 05:59:25;;;;;;;51.72;11.50;;;;;;;;;;5098683;28;20050;-64
2022/06/12 06:01:51;;;;;;;52.28;10.68;;;;;;;;;;5100469;28;20039;-64
2022/06/12 06:04:18;;;;;;;49.95;11.77;;;;;;;;;;5102003;28;20661;-64
2022/06/12 06:06:49;;;;;;;42.70;11.40;;;;;;;;;;5101260;28;20114;-64
2022/06/12 06:09:16;;;;;;;44.53;11.82;;;;;;;;;;5099754;28;20436;-64
2022/06/12 06:11:43;;;;;;;50.65;13.15;;;;;;;;;;5098742;28;20171;-63
2022/06/12 06:14:09;;;;;;;46.58;11.35;;;;;;;;;;5096874;28;20040;-64
2022/06/12 06:16:36;;;;;;;46.30;11.93;;;;;;;;;;5077415;28;20036;-64
2022/06/12 06:19:02;;;;;;;45.70;10.82;;;;;;;;;;5079255;28;20082;-64
2022/06/12 06:21:29;;;;;;;37.92;10.90;;;;;;;;;;5096596;28;20086;-64
2022/06/12 06:23:55;;;;;;;40.40;10.32;;;;;;;;;;5079919;28;20043;-65
2022/06/12 06:26:22;;;;;;;42.17;9.75;;;;;;;;;;5107457;28;20086;-64
2022/06/12 06:28:50;;;;;;;35.53;10.32;;;;;;;;;;5102802;28;20043;-64
2022/06/12 06:31:16;;;;;;;44.15;9.10;;;;;;;;;;5080511;28;20757;-64
2022/06/12 06:33:42;;;;;;;40.20;10.63;;;;;;;;;;5101746;28;20046;-64
2022/06/12 06:36:09;;;;;;;44.33;9.10;;;;;;;;;;5097122;28;20445;-65
2022/06/12 06:38:35;;;;;;;29.70;9.02;;;;;;;;;;5082296;28;20062;-64
2022/06/12 06:41:02;;;;;;;37.22;7.88;;;;;;;;;;5101055;28;20136;-63
2022/06/12 06:43:28;;;;;;;36.75;7.82;;;;;;;;;;5078769;28;20130;-63
2022/06/12 06:48:39;;;;;;;27.48;6.28;;;;;;;;;;5080517;28;20044;-63
2022/06/12 06:51:05;;;;;;;23.65;6.18;;;;;;;;;;5099236;28;20104;-64
2022/06/12 06:53:31;;;;;;;26.92;5.63;;;;;;;;;;5078926;28;21015;-64
2022/06/12 06:55:57;;;;;;;32.60;6.18;;;;;;;;;;5100432;28;20044;-64
2022/06/12 06:58:25;;;;;;;29.27;6.18;;;;;;;;;;5079089;28;20094;-63
2022/06/12 07:00:52;;;;;;;33.92;5.88;;;;;;;;;;5080333;28;20115;-64
2022/06/12 07:03:19;;;;;;;25.45;6.10;;;;;;;;;;5095556;28;20043;-64
2022/06/12 07:05:46;;;;;;;24.63;5.43;;;;;;;;;;5102234;28;20035;-64
2022/06/12 07:08:12;;;;;;;27.98;5.15;;;;;;;;;;5081166;28;20048;-64
2022/06/12 07:10:39;;;;;;;24.45;4.68;;;;;;;;;;5074967;28;20855;-63
2022/06/12 07:13:05;;;;;;;23.02;4.93;;;;;;;;;;5102469;28;20123;-64
2022/06/12 07:15:32;;;;;;;32.03;5.93;;;;;;;;;;5064368;28;20062;-63
2022/06/12 07:17:59;;;;;;;22.40;5.82;;;;;;;;;;5081155;28;20440;-64
2022/06/12 07:20:26;;;;;;;25.42;5.47;;;;;;;;;;5083935;28;20399;-64
2022/06/12 07:22:53;;;;;;;22.55;6.18;;;;;;;;;;5101680;28;20058;-64
2022/06/12 07:25:19;;;;;;;20.20;5.47;;;;;;;;;;5077537;28;20058;-64
2022/06/12 07:27:46;;;;;;;26.70;5.00;;;;;;;;;;5100245;28;20101;-64
2022/06/12 07:30:14;;;;;;;19.02;4.55;;;;;;;;;;5099209;28;20051;-64
2022/06/12 07:32:41;;;;;;;20.13;5.03;;;;;;;;;;5100031;28;20043;-64
2022/06/12 07:35:07;;;;;;;23.75;4.82;;;;;;;;;;5100993;28;20047;-64
2022/06/12 07:37:35;;;;;;;26.85;4.88;;;;;;;;;;5102990;28;20044;-63
2022/06/12 07:40:02;;;;;;;22.20;5.22;;;;;;;;;;5100115;28;20220;-64
2022/06/12 07:42:28;;;;;;;22.50;5.13;;;;;;;;;;5079856;28;20051;-64
2022/06/12 07:44:54;;;;;;;21.73;4.65;;;;;;;;;;5097717;28;20415;-64
2022/06/12 07:47:21;;;;;;;18.35;3.88;;;;;;;;;;5078770;28;20368;-64
2022/06/12 07:49:47;;;;;;;15.25;3.42;;;;;;;;;;5067057;28;20126;-64
2022/06/12 07:52:15;;;;;;;14.75;3.22;;;;;;;;;;5103161;28;20036;-64
2022/06/12 07:54:41;;;;;;;16.45;3.88;;;;;;;;;;5079785;28;20055;-64
2022/06/12 07:57:07;;;;;;;11.98;3.20;;;;;;;;;;5094873;28;20043;-62
2022/06/12 07:59:34;;;;;;;16.10;3.33;;;;;;;;;;5089502;28;20089;-64
2022/06/12 08:02:00;;;;;;;18.55;3.95;;;;;;;;;;5094528;28;20135;-63
2022/06/12 08:04:26;;;;;;;13.05;4.03;;;;;;;;;;5097355;28;20453;-64
2022/06/12 08:06:53;;;;;;;12.50;3.00;;;;;;;;;;5093843;28;20043;-64
2022/06/12 08:09:20;;;;;;;14.88;3.55;;;;;;;;;;5092734;28;20044;-64
2022/06/12 08:11:47;;;;;;;17.85;3.20;;;;;;;;;;5098417;28;20400;-64
2022/06/12 08:14:15;;;;;;;14.25;3.40;;;;;;;;;;5093130;28;20036;-64
2022/06/12 08:16:41;;;;;;;13.73;3.17;;;;;;;;;;5097562;28;20036;-64
2022/06/12 08:20:24;;;;;;;10.82;3.22;;;;;;;;;;5089565;28;20047;-63
2022/06/12 08:21:54;;;;;;;19.70;3.72;;;;;;;;;;5096252;28;20048;-63
2022/06/12 08:24:20;;;;;;;13.60;3.42;;;;;;;;;;5095754;28;20051;-63
2022/06/12 08:26:46;;;;;;;12.50;2.70;;;;;;;;;;5099885;28;20092;-63
2022/06/12 08:29:13;;;;;;;13.63;3.08;;;;;;;;;;5094039;28;20044;-63
2022/06/12 08:31:39;;;;;;;13.00;2.33;;;;;;;;;;5095626;28;20051;-63
2022/06/12 08:34:12;;;;;;;14.07;3.53;;;;;;;;;;5096209;28;20047;-63
2022/06/12 08:36:39;;;;;;;10.15;2.70;;;;;;;;;;5093527;28;21299;-64
2022/06/12 08:39:06;;;;;;;10.50;2.42;;;;;;;;;;5099848;28;20036;-63
2022/06/12 08:41:45;;;;;;;10.18;2.42;;;;;;;;;;5093040;28;20052;-63
2022/06/12 08:44:17;;;;;;;14.13;2.67;;;;;;;;;;5093154;28;20134;-64
2022/06/12 08:46:49;;;;;;;12.50;3.85;;;;;;;;;;5096671;28;20901;-63
2022/06/12 08:49:22;;;;;;;8.32;2.38;;;;;;;;;;5096333;28;20166;-63
2022/06/12 08:51:58;;;;;;;11.43;2.72;;;;;;;;;;5097354;28;20866;-63
2022/06/12 08:54:27;;;;;;;14.85;2.78;;;;;;;;;;5095635;28;20051;-64
2022/06/12 08:56:56;;;;;;;8.55;2.40;;;;;;;;;;5094673;28;20394;-63
2022/06/12 08:59:30;;;;;;;9.23;3.03;;;;;;;;;;5091394;28;20036;-63
2022/06/12 09:01:56;;;;;;;9.43;2.88;;;;;;;;;;5095082;28;20040;-64
2022/06/12 09:04:23;;;;;;;10.82;2.50;;;;;;;;;;5094620;28;20375;-63
2022/06/12 09:06:52;;;;;;;9.73;2.45;;;;;;;;;;5095002;28;20479;-63
2022/06/12 09:09:22;;;;;;;12.57;3.75;;;;;;;;;;5095242;28;20112;-63
2022/06/12 09:11:48;;;;;;;11.25;2.95;;;;;;;;;;5093140;28;20123;-63
2022/06/12 09:14:24;;;;;;;12.40;2.90;;;;;;;;;;5097124;28;20039;-63
2022/06/12 09:17:10;;;;;;;10.32;2.50;;;;;;;;;;5098352;28;20399;-63
2022/06/12 09:19:45;;;;;;;10.25;2.55;;;;;;;;;;5094080;28;20032;-63
2022/06/12 09:22:14;;;;;;;10.25;3.00;;;;;;;;;;5090361;28;20052;-64
2022/06/12 09:24:53;;;;;;;11.68;2.85;;;;;;;;;;5095296;28;20188;-63
2022/06/12 09:27:20;;;;;;;9.70;2.60;;;;;;;;;;5098525;28;20055;-63
2022/06/12 09:29:47;;;;;;;11.50;2.42;;;;;;;;;;5097028;28;20044;-64
2022/06/12 09:32:27;;;;;;;9.23;2.72;;;;;;;;;;5092093;28;20368;-64
2022/06/12 09:34:59;;;;;;;13.35;3.08;;;;;;;;;;5099263;28;20043;-63
2022/06/12 09:40:38;;;;;;;9.27;3.05;;;;;;;;;;5095755;28;20050;-63
2022/06/12 09:43:16;;;;;;;9.32;2.60;;;;;;;;;;5102802;28;20055;-64
2022/06/12 09:45:45;;;;;;;10.55;2.60;;;;;;;;;;5102374;28;20055;-64
2022/06/12 09:48:19;;;;;;;8.45;2.50;;;;;;;;;;5103320;28;20475;-64
2022/06/12 09:50:54;;;;;;;11.90;3.00;;;;;;;;;;5099876;28;20048;-64
2022/06/12 09:53:35;;;;;;;11.52;2.72;;;;;;;;;;5090518;28;20480;-63
2022/06/12 09:56:06;;;;;;;10.57;2.95;;;;;;;;;;5094207;28;20505;-64
2022/06/12 09:58:36;;;;;;;11.63;2.33;;;;;;;;;;5100501;28;20557;-64
2022/06/12 10:01:04;;;;;;;9.75;2.45;;;;;;;;;;5091496;28;20034;-63
2022/06/12 10:03:47;;;;;;;8.52;2.45;;;;;;;;;;5100682;28;21470;-64
2022/06/12 10:06:23;;;;;;;11.98;2.67;;;;;;;;;;5100972;28;20491;-64
2022/06/12 10:08:52;;;;;;;8.27;2.50;;;;;;;;;;5098352;28;20046;-64
2022/06/12 10:11:25;;;;;;;7.05;2.17;;;;;;;;;;5097551;28;20185;-64
2022/06/12 10:13:51;;;;;;;;;;;;;;;;;;5101081;28;20035;-64
2022/06/12 10:16:25;;;;;;;9.70;2.65;;;;;;;;;;5101841;28;20355;-63
2022/06/12 10:18:55;;;;;;;9.68;2.72;;;;;;;;;;5093474;28;20096;-63
2022/06/12 10:21:23;;;;;;;10.77;2.50;;;;;;;;;;5096069;28;20503;-85
2022/06/12 10:23:50;;;;;;;13.80;3.00;;;;;;;;;;5093581;28;20640;-78
2022/06/12 10:26:20;;;;;;;13.32;3.45;;;;;;;;;;5098370;28;20196;-79
2022/06/12 10:28:47;;;;;;;13.23;2.92;;;;;;;;;;5092061;28;20250;-79
2022/06/12 10:31:18;;;;;;;9.63;2.83;;;;;;;;;;5093686;28;20369;-63
2022/06/12 10:33:44;;;;;;;11.50;2.92;;;;;;;;;;5097219;28;21449;-63
2022/06/12 10:36:19;;;;;;;13.70;2.60;;;;;;;;;;5097214;28;20484;-63
2022/06/12 10:38:45;;;;;;;9.95;2.78;;;;;;;;;;5098620;28;20140;-63
2022/06/12 10:41:21;;;;;;;11.18;3.22;;;;;;;;;;5097521;28;20078;-63
2022/06/12 10:43:49;;;;;;;11.50;2.80;;;;;;;;;;5097772;28;20040;-63
2022/06/12 10:46:15;;;;;;;14.27;3.72;;;;;;;;;;5098610;28;20043;-63
2022/06/12 10:48:42;;;;;;;9.65;3.10;;;;;;;;;;5098549;28;20095;-64
2022/06/12 10:51:14;;;;;;;11.73;3.05;;;;;;;;;;5095965;28;20043;-63
2022/06/12 10:53:41;;;;;;;10.07;2.70;;;;;;;;;;5092599;28;20090;-63
2022/06/12 10:56:08;;;;;;;10.32;2.70;;;;;;;;;;5097054;28;20043;-63
2022/06/12 10:58:50;;;;;;;11.55;3.20;;;;;;;;;;5077544;28;20048;-63
2022/06/12 11:01:20;;;;;;;11.95;3.17;;;;;;;;;;5093674;28;20127;-63
2022/06/12 11:04:01;;;;;;;13.02;3.47;;;;;;;;;;5100569;28;20055;-63
2022/06/12 11:06:43;;;;;;;8.98;2.75;;;;;;;;;;5101315;28;20054;-63
2022/06/12 11:09:29;;;;;;;10.65;3.15;;;;;;;;;;5098102;28;20069;-63
2022/06/12 11:11:55;;;;;;;12.75;3.30;;;;;;;;;;5078618;28;20040;-64
2022/06/12 11:14:29;;;;;;;9.10;2.65;;;;;;;;;;5096046;28;21324;-63
2022/06/12 11:17:00;;;;;;;14.25;3.58;;;;;;;;;;5097660;28;20460;-63
2022/06/12 11:19:35;;;;;;;11.70;3.30;;;;;;;;;;5079628;28;20036;-63
2022/06/12 11:22:07;;;;;;;14.00;3.75;;;;;;;;;;5098302;28;20559;-63
2022/06/12 11:24:37;;;;;;;12.82;3.13;;;;;;;;;;5079272;28;20055;-63
2022/06/12 11:27:11;;;;;;;10.50;3.10;;;;;;;;;;5073112;28;20052;-63
2022/06/12 11:29:39;;;;;;;8.82;2.88;;;;;;;;;;5073847;28;20051;-62
2022/06/12 11:32:16;;;;;;;11.27;2.88;;;;;;;;;;5095482;28;20063;-62
2022/06/12 11:34:52;;;;;;;9.80;2.67;;;;;;;;;;5076724;28;20043;-63
2022/06/12 11:37:35;;;;;;;13.75;3.22;;;;;;;;;;5072649;28;20056;-63
2022/06/12 11:40:03;;;;;;;12.02;2.78;;;;;;;;;;5093776;28;20078;-63
2022/06/12 11:42:36;;;;;;;10.75;2.78;;;;;;;;;;5089213;27;20148;-63
2022/06/12 11:45:04;;;;;;;9.30;2.83;;;;;;;;;;5094540;28;20059;-62
2022/06/12 11:47:30;;;;;;;10.52;2.90;;;;;;;;;;5077433;28;20325;-63
2022/06/12 11:50:03;;;;;;;10.43;2.90;;;;;;;;;;5074955;28;20595;-63
2022/06/12 11:52:52;;;;;;;8.48;2.47;;;;;;;;;;5096895;27;20375;-64
2022/06/12 11:55:37;;;;;;;7.38;2.45;;;;;;;;;;5096554;27;20127;-63
2022/06/12 11:58:15;;;;;;;11.95;2.65;;;;;;;;;;5075610;28;20071;-64
2022/06/12 12:00:41;;;;;;;9.45;2.95;;;;;;;;;;5082856;28;20047;-64
2022/06/12 12:03:26;;;;;;;9.95;2.63;;;;;;;;;;5102790;27;20074;-64
2022/06/12 12:06:02;;;;;;;9.13;2.60;;;;;;;;;;5060060;28;20075;-64
2022/06/12 12:08:44;;;;;;;12.27;3.00;;;;;;;;;;5087740;28;20414;-64
2022/06/12 12:11:15;;;;;;;16.65;3.47;;;;;;;;;;5091482;28;20525;-64
2022/06/12 12:13:44;;;;;;;11.40;3.22;;;;;;;;;;5071453;28;20052;-64
2022/06/12 12:16:16;;;;;;;11.40;3.33;;;;;;;;;;5092652;28;20040;-64
2022/06/12 12:18:45;;;;;;;11.93;2.67;;;;;;;;;;5095026;28;20051;-64
2022/06/12 12:21:14;;;;;;;10.80;3.22;;;;;;;;;;5097681;28;20039;-63
2022/06/12 12:23:43;;;;;;;9.05;2.92;;;;;;;;;;5071382;28;20048;-63
2022/06/12 12:26:17;;;;;;;8.70;2.80;;;;;;;;;;5094268;28;20134;-64
2022/06/12 12:28:45;;;;;;;9.75;2.92;;;;;;;;;;5089664;28;20055;-64
2022/06/12 12:31:13;;;;;;;11.57;2.90;;;;;;;;;;5098809;28;20044;-64
2022/06/12 12:33:42;;;;;;;9.52;2.45;;;;;;;;;;5099242;28;20047;-64
2022/06/12 12:41:48;;;;;;;11.85;2.67;;;;;;;;;;5076968;28;20437;-64
2022/06/12 12:44:16;;;;;;;7.90;2.45;;;;;;;;;;5097052;28;20047;-64
2022/06/12 12:46:47;;;;;;;12.35;2.97;;;;;;;;;;5098829;28;20109;-64
2022/06/12 12:49:22;;;;;;;11.20;2.83;;;;;;;;;;5094705;28;20167;-64
2022/06/12 12:51:48;;;;;;;11.48;2.90;;;;;;;;;;5095630;28;20044;-64
2022/06/12 12:54:16;;;;;;;9.75;3.00;;;;;;;;;;5074981;28;20517;-64
2022/06/12 12:56:54;;;;;;;17.60;4.25;;;;;;;;;;5096229;28;20492;-64
2022/06/12 12:59:20;;;;;;;10.73;3.58;;;;;;;;;;5096524;28;20106;-63
2022/06/12 13:01:48;;;;;;;11.48;3.55;;;;;;;;;;5103519;28;20544;-64
2022/06/12 13:04:16;;;;;;;15.63;3.35;;;;;;;;;;5099229;28;20048;-63
2022/06/12 13:06:52;;;;;;;11.10;3.33;;;;;;;;;;5096896;27;20248;-64
2022/06/12 13:09:33;;;;;;;10.30;3.03;;;;;;;;;;5096128;28;20040;-64
2022/06/12 13:12:05;;;;;;;10.93;3.25;;;;;;;;;;5098806;28;20070;-64
2022/06/12 13:14:37;;;;;;;10.32;2.97;;;;;;;;;;5097618;27;20035;-63
2022/06/12 13:17:10;;;;;;;13.43;4.32;;;;;;;;;;5076022;28;20129;-64
2022/06/12 13:19:37;;;;;;;11.95;2.92;;;;;;;;;;5097381;28;20067;-63
2022/06/12 13:22:21;;;;;;;11.27;3.53;;;;;;;;;;5065631;28;20056;-63
2022/06/12 13:24:47;;;;;;;10.93;2.97;;;;;;;;;;5096428;28;20047;-64
2022/06/12 13:27:18;;;;;;;13.98;3.65;;;;;;;;;;5080901;28;20130;-64
2022/06/12 13:29:45;;;;;;;13.57;3.80;;;;;;;;;;5093583;28;20398;-63
2022/06/12 13:32:20;;;;;;;14.20;3.58;;;;;;;;;;5095923;28;20039;-64
2022/06/12 13:34:54;;;;;;;10.95;3.30;;;;;;;;;;5098630;28;20100;-64
2022/06/12 13:37:20;;;;;;;14.25;3.85;;;;;;;;;;5096734;28;20047;-63
2022/06/12 13:39:47;;;;;;;13.95;3.95;;;;;;;;;;5098886;28;20092;-63
2022/06/12 13:42:16;;;;;;;14.88;3.58;;;;;;;;;;5093239;28;20083;-63
2022/06/12 13:44:44;;;;;;;13.93;4.22;;;;;;;;;;5076130;28;20170;-63
2022/06/12 13:47:20;;;;;;;16.17;3.90;;;;;;;;;;5099798;28;20044;-63
2022/06/12 13:49:52;;;;;;;11.73;3.97;;;;;;;;;;5076467;28;20040;-63
2022/06/12 13:52:22;;;;;;;15.90;3.72;;;;;;;;;;5080358;28;20101;-63
2022/06/12 13:54:48;;;;;;;14.85;4.32;;;;;;;;;;5103980;28;20372;-64
2022/06/12 13:57:22;;;;;;;14.45;3.78;;;;;;;;;;5104206;28;20091;-64
2022/06/12 13:59:49;;;;;;;12.68;4.10;;;;;;;;;;5103678;28;20126;-63
2022/06/12 14:02:17;;;;;;;14.02;3.97;;;;;;;;;;5102479;27;20450;-64
2022/06/12 14:04:51;;;;;;;16.77;3.30;;;;;;;;;;5103001;28;20040;-63
2022/06/12 14:07:17;;;;;;;13.18;3.70;;;;;;;;;;5097689;28;20039;-63
2022/06/12 14:09:43;;;;;;;15.20;3.35;;;;;;;;;;5102941;28;20036;-64
2022/06/12 14:12:13;;;;;;;13.73;4.00;;;;;;;;;;5099009;28;20136;-64
2022/06/12 14:14:41;;;;;;;13.45;3.83;;;;;;;;;;5102040;27;20039;-64
2022/06/12 14:17:21;;;;;;;12.45;3.80;;;;;;;;;;5085244;28;20080;-64
2022/06/12 14:19:55;;;;;;;11.95;3.33;;;;;;;;;;5097073;28;20421;-63
2022/06/12 14:22:22;;;;;;;8.18;3.20;;;;;;;;;;5095916;28;20114;-64
2022/06/12 14:25:00;;;;;;;14.90;3.72;;;;;;;;;;5102847;28;20054;-63
2022/06/12 14:27:35;;;;;;;11.38;3.58;;;;;;;;;;5098128;28;20518;-64
2022/06/12 14:30:02;;;;;;;8.95;2.72;;;;;;;;;;5101552;27;20149;-64
2022/06/12 14:32:30;;;;;;;15.00;3.28;;;;;;;;;;5099845;28;20042;-64
2022/06/12 14:35:02;;;;;;;13.02;2.85;;;;;;;;;;5099947;28;20189;-63
2022/06/12 14:37:32;;;;;;;14.63;3.63;;;;;;;;;;5099162;28;20050;-64
2022/06/12 14:40:00;;;;;;;13.55;3.38;;;;;;;;;;5101876;27;20027;-64
2022/06/12 14:42:27;;;;;;;13.60;3.70;;;;;;;;;;5098390;28;20043;-63
2022/06/12 14:45:12;;;;;;;17.17;3.80;;;;;;;;;;5091600;28;20052;-81
2022/06/12 14:47:38;;;;;;;11.00;2.80;;;;;;;;;;5069105;28;21555;-78
2022/06/12 14:50:09;;;;;;;38.03;4.38;;;;;;;;;;5085797;28;20040;-71
2022/06/12 14:52:36;;;;;;;10.88;3.80;;;;;;;;;;5083420;28;20463;-64
2022/06/12 14:55:02;;;;;;;14.43;3.13;;;;;;;;;;5084342;28;20044;-74
2022/06/12 14:57:28;;;;;;;13.98;3.55;;;;;;;;;;5060781;28;20759;-64
2022/06/12 14:59:55;;;;;;;14.27;4.22;;;;;;;;;;5081997;28;20547;-64
2022/06/12 15:02:23;;;;;;;16.15;4.00;;;;;;;;;;5085766;28;20422;-64
2022/06/12 15:04:50;;;;;;;14.00;3.45;;;;;;;;;;5080596;28;20050;-63
2022/06/12 15:07:16;;;;;;;11.90;3.38;;;;;;;;;;5081747;28;20122;-68